• Join FlightAware (Why Join?)
  • Login
  • US Flag 
10:47PM EST


 

Airport Tracker/Info


-or-


 

Live Flight TrackerFlight Track Log ✈ UPS2844 ✈ 11-Aug-2014 ✈ KSDF - KSLC

Flight Track Log - Related Links

Times and Time Zones

All times are in EDT time to prevent confusion due to time zone crossing. See the UPS2844 flight status page for this flight to view local times or setup timezone preferences in your user account.

Time Position Orientation Groundspeed Altitude Reporting Facility
EDT Latitude Longitude Course Direction KTS MPH feet Rate Location/Type
04:49PM 38.1373 -85.7345 181° South 197 227 2,100  Level FlightAware ADS-B
04:50PM 38.1127 -85.8043 263° West 252 290 4,700 3,000 Climbing FlightAware ADS-B
04:51PM 38.1068 -85.8635 263° West 260 299 7,700 3,420 Climbing FlightAware ADS-B
04:52PM 38.0959 -85.9699 263° West 288 331 11,000 2,340 Climbing FlightAware ADS-B
04:53PM 38.0833 -86.1131 262° West 374 430 13,000 1,740 Climbing FlightAware ADS-B
04:54PM 38.0709 -86.2274 264° West 368 423 14,900 1,680 Climbing FlightAware ADS-B
04:55PM 38.0669 -86.2736 264° West 359 413 15,600 3,060 Climbing Kansas City Center
04:55PM 38.0672 -86.4011 270° West 363 418 19,100 2,580 Climbing Indianapolis Center
04:56PM 38.0953 -86.5292 286° West 376 433 20,500 1,800 Climbing Indianapolis Center
04:57PM 38.1233 -86.6600 285° West 389 448 22,900 1,860 Climbing Indianapolis Center
04:58PM 38.1492 -86.8003 283° West 405 466 24,400 1,500 Climbing Indianapolis Center
05:00PM 38.1792 -86.9431 285° West 412 474 26,000 720 Climbing Indianapolis Center
05:01PM 38.2103 -87.0892 285° West 414 476 26,000  Level Indianapolis Center
05:02PM 38.2422 -87.2403 285° West 416 479 26,000 720 Level Indianapolis Center
05:03PM 38.2725 -87.3861 285° West 435 501 27,500 960 Climbing Indianapolis Center
05:04PM 38.3039 -87.5372 285° West 437 503 28,000 1,740 Climbing Indianapolis Center
05:05PM 38.3408 -87.7153 285° West 419 482 31,200 1,920 Climbing Indianapolis Center
05:06PM 38.3700 -87.8600 284° West 425 489 32,000 360 Climbing Indianapolis Center
05:07PM 38.4003 -88.0086 285° West 430 495 32,000  Level Indianapolis Center
05:08PM 38.4286 -88.1492 284° West 409 471 32,000 600 Level Indianapolis Center
05:09PM 38.4636 -88.3225 285° West 412 474 33,500 1,560 Climbing Kansas City Center
05:10PM 38.4900 -88.4575 284° West 391 450 35,700 1,200 Climbing Kansas City Center
05:11PM 38.5161 -88.5903 284° West 388 447 36,000 120 Climbing Kansas City Center
05:12PM 38.5467 -88.7461 284° West 386 444 36,000  Level Kansas City Center
05:13PM 38.5744 -88.8881 284° West 385 443 36,000  Level Kansas City Center
05:14PM 38.5989 -89.0147 284° West 385 443 36,000  Level Kansas City Center
05:15PM 38.6244 -89.1489 284° West 385 443 36,000  Level Kansas City Center
05:16PM 38.6500 -89.2825 284° West 386 444 36,000  Level Kansas City Center
05:17PM 38.6756 -89.4186 284° West 389 448 36,000  Level Kansas City Center
05:18PM 38.7019 -89.5567 284° West 396 456 36,000  Level Kansas City Center
05:19PM 38.7328 -89.7225 283° West 405 466 36,000  Level Kansas City Center
05:20PM 38.7589 -89.8653 283° West 411 473 36,000  Level Kansas City Center
05:21PM 38.7864 -90.0133 283° West 414 476 36,000  Level Kansas City Center
05:23PM 38.8128 -90.1592 283° West 416 479 36,000  Level Kansas City Center
05:24PM 38.8392 -90.3056 283° West 418 481 36,000  Level Kansas City Center
05:25PM 38.8664 -90.4561 283° West 421 484 36,000  Level Kansas City Center
05:26PM 38.8978 -90.6328 283° West 422 486 36,000  Level Kansas City Center
05:27PM 38.9200 -90.7592 283° West 422 486 36,000  Level Kansas City Center
05:28PM 38.9453 -90.9039 283° West 420 483 36,000  Level Kansas City Center
05:29PM 38.9753 -91.0756 283° West 416 479 36,000  Level Kansas City Center
05:34PM 39.1093 -91.8680 282° West 434 499 36,000  Level FlightAware ADS-B
05:35PM 39.1296 -91.9913 282° West 434 499 36,000  Level FlightAware ADS-B
05:36PM 39.1507 -92.1194 282° West 434 499 36,000  Level FlightAware ADS-B
05:36PM 39.1666 -92.2179 282° West 435 501 36,000  Level FlightAware ADS-B
05:37PM 39.1827 -92.3185 282° West 435 501 36,000  Level FlightAware ADS-B
05:38PM 39.1957 -92.3984 282° West 436 502 36,000  Level FlightAware ADS-B
05:38PM 39.2156 -92.5231 282° West 438 504 36,000  Level FlightAware ADS-B
05:39PM 39.2319 -92.6258 281° West 439 505 36,000  Level FlightAware ADS-B
05:40PM 39.2477 -92.7258 281° West 439 505 36,000  Level FlightAware ADS-B
05:40PM 39.2646 -92.8331 282° West 440 506 36,000  Level FlightAware ADS-B
05:41PM 39.2757 -92.9044 281° West 441 507 36,000  Level FlightAware ADS-B
05:42PM 39.2969 -93.0407 281° West 441 507 36,000  Level FlightAware ADS-B
05:42PM 39.3091 -93.1199 281° West 442 509 36,000  Level FlightAware ADS-B
05:43PM 39.3295 -93.2534 281° West 441 507 36,000  Level FlightAware ADS-B
05:44PM 39.3494 -93.3839 281° West 440 506 36,000  Level Minneapolis Center
05:45PM 39.3778 -93.5744 281° West 440 506 36,000  Level Kansas City Center
05:46PM 39.4036 -93.7464 281° West 440 506 36,000  Level Kansas City Center
05:47PM 39.4239 -93.8844 281° West 439 505 36,000  Level Kansas City Center
05:48PM 39.4503 -94.0656 281° West 439 505 36,000  Level Kansas City Center
05:49PM 39.4725 -94.2192 281° West 438 504 36,000  Level Kansas City Center
05:50PM 39.4944 -94.3731 281° West 437 503 36,000  Level Kansas City Center
05:51PM 39.5161 -94.5264 280° West 436 502 36,000  Level Kansas City Center
05:53PM 39.5375 -94.6792 280° West 436 502 36,000  Level Kansas City Center
05:54PM 39.5586 -94.8322 280° West 435 501 36,000  Level Kansas City Center
05:55PM 39.5836 -95.0144 280° West 435 501 36,000  Level Kansas City Center
05:56PM 39.6044 -95.1664 280° West 434 499 36,000  Level Kansas City Center
05:57PM 39.6247 -95.3183 280° West 434 499 36,000  Level Kansas City Center
05:58PM 39.6450 -95.4708 280° West 434 499 36,000  Level Kansas City Center
05:59PM 39.6692 -95.6550 280° West 434 499 36,000  Level Kansas City Center
06:00PM 39.6892 -95.8089 280° West 435 501 36,000  Level Kansas City Center
06:01PM 39.7089 -95.9631 279° West 435 501 36,000  Level Kansas City Center
06:02PM 39.7286 -96.1178 279° West 435 501 36,000  Level Kansas City Center
06:03PM 39.7481 -96.2725 279° West 436 502 36,000  Level Kansas City Center
06:04PM 39.7714 -96.4594 279° West 437 503 36,000  Level Kansas City Center
06:05PM 39.7908 -96.6189 279° West 438 504 36,000  Level Kansas City Center
06:06PM 39.8078 -96.7583 279° West 439 505 36,000  Level Kansas City Center
06:07PM 39.8303 -96.9478 279° West 440 506 36,000  Level Kansas City Center
06:08PM 39.8492 -97.1061 279° West 441 507 36,000  Level Kansas City Center
06:09PM 39.8675 -97.2653 279° West 442 509 36,000  Level Kansas City Center
06:10PM 39.8819 -97.3900 279° West 443 510 36,000  Level Minneapolis Center
06:11PM 39.9000 -97.5494 278° West 444 511 36,000  Level Minneapolis Center
06:12PM 39.9222 -97.7447 279° West 445 512 36,000  Level Minneapolis Center
06:13PM 39.9394 -97.9014 278° West 445 512 36,000  Level Minneapolis Center
06:14PM 39.9569 -98.0614 278° West 445 512 36,000  Level Minneapolis Center
06:15PM 39.9744 -98.2225 278° West 446 513 36,000  Level Minneapolis Center
06:16PM 39.9914 -98.3836 278° West 447 514 36,000  Level Minneapolis Center
06:17PM 40.0086 -98.5453 278° West 448 516 36,000  Level Minneapolis Center
06:18PM 40.0272 -98.7400 277° West 449 517 36,000  Level Minneapolis Center
06:19PM 40.0361 -98.9039 274° West 450 518 36,000  Level Minneapolis Center
06:20PM 40.0422 -99.0681 273° West 451 519 36,000  Level Denver Center
06:21PM 40.0481 -99.2319 273° West 451 519 36,000  Level Denver Center
06:22PM 40.0550 -99.3972 273° West 452 520 36,000  Level Minneapolis Center
06:23PM 40.0606 -99.5619 273° West 452 520 36,000  Level Denver Center
06:24PM 40.0669 -99.7278 273° West 453 521 36,000  Level Denver Center
06:25PM 40.0733 -99.9122 273° West 456 525 36,000  Level Denver Center
06:31PM 40.0056 -100.8690 256° West 469 540 36,000  Level FlightAware ADS-B (KEIK)
06:32PM 39.9729 -101.0512 257° West 467 537 36,000  Level FlightAware ADS-B (KEIK)
06:33PM 39.9533 -101.1625 257° West 466 536 36,000  Level FlightAware ADS-B (KEIK)
06:34PM 39.9431 -101.2202 257° West 466 536 36,000  Level FlightAware ADS-B (KEIK)
06:34PM 39.9156 -101.3814 258° West 466 536 36,000  Level FlightAware ADS-B (KEIK)
06:35PM 39.9047 -101.4467 258° West 467 537 36,000  Level FlightAware ADS-B (KEIK)
06:35PM 39.8870 -101.5525 258° West 468 539 36,000  Level FlightAware ADS-B (KEIK)
06:36PM 39.8722 -101.6782 263° West 468 539 36,000  Level FlightAware ADS-B (KEIK)
06:37PM 39.8608 -101.8120 267° West 468 539 36,000  Level FlightAware ADS-B (KEIK)
06:38PM 39.8586 -101.9341 269° West 468 539 36,000  Level FlightAware ADS-B (KEIK)
06:38PM 39.8573 -102.0231 269° West 468 539 36,000  Level FlightAware ADS-B (KEIK)
06:39PM 39.8571 -102.1169 272° West 469 540 36,000  Level FlightAware ADS-B (KEIK)
06:40PM 39.8670 -102.2729 274° West 468 539 36,000  Level FlightAware ADS-B (KEIK)
06:40PM 39.8740 -102.3986 274° West 468 539 36,000  Level FlightAware ADS-B (KEIK)
06:41PM 39.8799 -102.5020 274° West 468 539 36,000  Level FlightAware ADS-B (KEIK)
06:42PM 39.8858 -102.6026 275° West 470 541 36,000  Level FlightAware ADS-B (KANK)
06:42PM 39.8914 -102.6991 274° West 471 542 36,000  Level FlightAware ADS-B (KANK)
06:43PM 39.8962 -102.7856 274° West 472 543 36,000  Level FlightAware ADS-B (KEIK)
06:43PM 39.9014 -102.8779 274° West 472 543 36,000  Level FlightAware ADS-B (KANK)
06:44PM 39.9087 -103.0126 274° West 471 542 36,000  Level FlightAware ADS-B (KEIK)
06:45PM 39.9153 -103.1360 274° West 471 542 36,000  Level FlightAware ADS-B (KEIK)
06:45PM 39.9204 -103.2346 274° West 471 542 36,000  Level FlightAware ADS-B (KANK)
06:46PM 39.9265 -103.3518 274° West 471 542 36,000  Level FlightAware ADS-B (KANK)
06:47PM 39.9319 -103.4626 274° West 471 542 36,000  Level FlightAware ADS-B (KANK)
06:47PM 39.9376 -103.5778 274° West 470 541 36,000  Level FlightAware ADS-B (KANK)
06:48PM 39.9437 -103.7041 274° West 469 540 36,000  Level FlightAware ADS-B (KEIK)
06:49PM 39.9476 -103.7853 273° West 468 539 36,000  Level FlightAware ADS-B (KEIK)
06:49PM 39.9518 -103.8769 273° West 467 537 36,000  Level FlightAware ADS-B (KEIK)
06:50PM 39.9560 -103.9685 273° West 466 536 36,000  Level FlightAware ADS-B (KANK)
06:50PM 39.9605 -104.0692 273° West 465 535 36,000  Level FlightAware ADS-B (KEIK)
06:51PM 39.9642 -104.1520 273° West 464 534 36,000  Level FlightAware ADS-B (KANK)
06:51PM 39.9682 -104.2453 273° West 463 533 36,000  Level FlightAware ADS-B (KEIK)
06:52PM 39.9719 -104.3317 273° West 461 531 36,000  Level FlightAware ADS-B (KEIK)
06:52PM 39.9753 -104.4135 273° West 460 529 36,000  Level FlightAware ADS-B (KEIK)
06:53PM 39.9797 -104.5200 273° West 458 527 36,000  Level FlightAware ADS-B (KANK)
06:53PM 39.9832 -104.6073 273° West 456 525 36,000  Level FlightAware ADS-B (KANK)
06:54PM 39.9863 -104.6846 273° West 455 524 36,000  Level FlightAware ADS-B (KANK)
06:55PM 39.9911 -104.8111 273° West 452 520 36,000  Level FlightAware ADS-B (KANK)
06:55PM 39.9941 -104.8928 273° West 451 519 36,000  Level FlightAware ADS-B (KANK)
06:56PM 39.9975 -104.9830 273° West 450 518 36,000  Level FlightAware ADS-B (KANK)
06:56PM 40.0004 -105.0642 273° West 449 517 36,000  Level FlightAware ADS-B (KANK)
06:57PM 40.0036 -105.1508 273° West 447 514 36,000  Level FlightAware ADS-B (KEIK)
06:57PM 40.0062 -105.2289 272° West 446 513 36,000  Level FlightAware ADS-B (KEIK)
06:58PM 40.0096 -105.3277 273° West 445 512 36,000  Level FlightAware ADS-B (KANK)
06:58PM 40.0124 -105.4134 273° West 443 510 36,000  Level FlightAware ADS-B (KAPA)
06:59PM 40.0150 -105.4925 272° West 442 509 36,000  Level FlightAware ADS-B (KANK)
06:59PM 40.0176 -105.5751 272° West 441 507 36,000  Level FlightAware ADS-B (KANK)
07:00PM 40.0201 -105.6556 272° West 441 507 36,000  Level FlightAware ADS-B (KEIK)
07:01PM 40.0227 -105.7397 272° West 441 507 36,000  Level FlightAware ADS-B (KEIK)
07:01PM 40.0253 -105.8305 272° West 441 507 36,000  Level FlightAware ADS-B (KEIK)
07:02PM 40.0279 -105.9171 272° West 441 507 36,000  Level FlightAware ADS-B (KEIK)
07:02PM 40.0306 -106.0126 272° West 442 509 36,000  Level FlightAware ADS-B (KEIK)
07:03PM 40.0329 -106.1042 272° West 441 507 36,000  Level FlightAware ADS-B (KANK)
07:03PM 40.0353 -106.1897 272° West 441 507 36,000  Level FlightAware ADS-B (KEIK)
07:04PM 40.0373 -106.2706 272° West 441 507 36,000  Level FlightAware ADS-B (KANK)
07:04PM 40.0394 -106.3548 272° West 441 507 36,000  Level FlightAware ADS-B (KANK)
07:05PM 40.0419 -106.4528 272° West 441 507 36,000  Level FlightAware ADS-B (KGJT)
07:06PM 40.0439 -106.5461 272° West 441 507 36,000  Level FlightAware ADS-B (KANK)
07:06PM 40.0459 -106.6281 272° West 441 507 36,000  Level FlightAware ADS-B (KEIK)
07:07PM 40.0475 -106.7070 272° West 442 509 36,000  Level FlightAware ADS-B (KEIK)
07:07PM 40.0493 -106.7927 272° West 441 507 36,000  Level FlightAware ADS-B (KGJT)
07:08PM 40.0513 -106.8870 272° West 440 506 36,000  Level FlightAware ADS-B (KANK)
07:08PM 40.0537 -107.0052 271° West 439 505 36,000  Level FlightAware ADS-B
07:09PM 40.0549 -107.0754 271° West 438 504 36,000  Level FlightAware ADS-B
07:09PM 40.0565 -107.1642 271° West 437 503 36,000  Level FlightAware ADS-B
07:10PM 40.0579 -107.2447 271° West 437 503 36,000  Level FlightAware ADS-B
07:10PM 40.0593 -107.3232 271° West 436 502 36,000  Level FlightAware ADS-B
07:11PM 40.0604 -107.3997 271° West 436 502 36,000  Level FlightAware ADS-B
07:12PM 40.0612 -107.4485 271° West 436 502 36,000  Level FlightAware ADS-B (KGJT)
07:12PM 40.0630 -107.5669 271° West 437 503 36,000  Level FlightAware ADS-B
07:13PM 40.0640 -107.6490 271° West 437 503 36,000  Level FlightAware ADS-B
07:13PM 40.0652 -107.7372 271° West 438 504 36,000  Level FlightAware ADS-B
07:14PM 40.0666 -107.8446 271° West 438 504 36,000  Level FlightAware ADS-B
07:14PM 40.0676 -107.9341 271° West 439 505 36,000  Level FlightAware ADS-B (ZWAK / AKU)
07:15PM 40.0709 -108.0142 274° West 440 506 36,000  Level FlightAware ADS-B
07:15PM 40.0752 -108.0955 274° West 441 507 36,000  Level FlightAware ADS-B (ZWAK / AKU)
07:16PM 40.0796 -108.1841 274° West 441 507 36,000  Level FlightAware ADS-B
07:16PM 40.0832 -108.2641 273° West 441 507 36,000  Level FlightAware ADS-B (ZWAK / AKU)
07:17PM 40.0866 -108.3464 273° West 441 507 36,000  Level FlightAware ADS-B
07:18PM 40.0911 -108.4548 273° West 441 507 36,000  Level FlightAware ADS-B
07:18PM 40.0943 -108.5345 273° West 441 507 36,000  Level FlightAware ADS-B
07:19PM 40.0978 -108.6223 273° West 441 507 36,000  Level FlightAware ADS-B
07:19PM 40.1011 -108.7032 273° West 442 509 36,000  Level FlightAware ADS-B
07:20PM 40.1046 -108.7912 273° West 443 510 36,000  Level FlightAware ADS-B
07:20PM 40.1078 -108.8745 273° West 444 511 36,000  Level FlightAware ADS-B
07:21PM 40.1109 -108.9540 273° West 444 511 36,000  Level FlightAware ADS-B
07:21PM 40.1141 -109.0417 273° West 444 511 36,000  Level FlightAware ADS-B
07:22PM 40.1174 -109.1335 273° West 443 510 36,000  Level FlightAware ADS-B
07:23PM 40.1213 -109.2411 273° West 444 511 36,000  Level FlightAware ADS-B
07:23PM 40.1244 -109.3288 273° West 444 511 36,000  Level FlightAware ADS-B
07:24PM 40.1271 -109.4081 273° West 444 511 36,000 -120 Level FlightAware ADS-B (KGJT)
07:24PM 40.1303 -109.5031 273° West 443 510 35,900 -600 Descending FlightAware ADS-B
07:25PM 40.1331 -109.5937 273° West 443 510 35,300 -1,380 Descending FlightAware ADS-B (KGJT)
07:25PM 40.1369 -109.7052 272° West 455 524 34,200 -1,620 Descending FlightAware ADS-B
07:26PM 40.1394 -109.7901 272° West 462 532 33,400 -1,380 Descending FlightAware ADS-B (ZWAK / AKU)
07:27PM 40.1425 -109.8982 273° West 466 536 32,600 -1,080 Descending FlightAware ADS-B
07:27PM 40.1454 -109.9982 272° West 463 533 32,100 -1,020 Descending FlightAware ADS-B (KGJT)
07:28PM 40.1480 -110.0870 272° West 463 533 31,500 -1,320 Descending FlightAware ADS-B
07:29PM 40.1490 -110.2398 269° West 471 542 30,200 -960 Descending FlightAware ADS-B
07:29PM 40.1474 -110.3406 269° West 472 543 30,000 -180 Descending FlightAware ADS-B
07:30PM 40.1463 -110.4559 274° West 476 548 30,000 -120 Level FlightAware ADS-B (KMTJ)
07:30PM 40.1564 -110.5427 280° West 471 542 29,900 -1,320 Descending FlightAware ADS-B (KGJT)
07:31PM 40.1676 -110.6291 280° West 465 535 28,700 -2,640 Descending FlightAware ADS-B (KPVU)
07:31PM 40.1800 -110.7218 280° West 458 527 27,200 -2,640 Descending FlightAware ADS-B
07:32PM 40.1918 -110.8166 279° West 447 514 25,600 -2,400 Descending FlightAware ADS-B (ZWAK / AKU)
07:33PM 40.2061 -110.9296 279° West 438 504 24,100 -2,400 Descending FlightAware ADS-B (KPVU)
07:33PM 40.2182 -111.0275 277° West 427 491 22,500 -2,220 Descending FlightAware ADS-B (KPVU)
07:34PM 40.2159 -111.1082 261° West 414 476 21,400 -2,400 Descending FlightAware ADS-B (KPVU)
07:35PM 40.1995 -111.2115 257° West 392 451 19,500 -2,580 Descending FlightAware ADS-B (KPVU)
07:35PM 40.1866 -111.2870 262° West 369 425 18,300 -2,280 Descending FlightAware ADS-B (KPVU)
07:36PM 40.1743 -111.3788 256° West 391 450 16,700 -1,800 Descending FlightAware ADS-B (KPVU)
07:36PM 40.1611 -111.4384 248° West 374 430 16,200 -660 Descending FlightAware ADS-B (KPVU)
07:37PM 40.1377 -111.5329 266° West 343 395 15,900 -480 Descending FlightAware ADS-B (KPVU)
07:37PM 40.1386 -111.5561 279° West 335 386 15,800 -240 Descending FlightAware ADS-B (ZWAK / AKU)
07:38PM 40.1471 -111.5925 295° West 328 377 15,800 -720 Level FlightAware ADS-B (KPVU)
07:38PM 40.1723 -111.6635 297° West 321 369 15,100 -1,920 Descending FlightAware ADS-B (KPVU)
07:39PM 40.2014 -111.7134 314° West 323 372 13,500 -2,580 Descending FlightAware ADS-B (KPVU)
07:40PM 40.2458 -111.7724 315° West 310 357 11,900 -1,440 Descending FlightAware ADS-B (KPVU)
07:40PM 40.2817 -111.8157 319° Northwest 294 338 11,700 -660 Descending FlightAware ADS-B (KPVU)
07:41PM 40.3247 -111.8643 320° Northwest 305 351 11,100 -720 Descending FlightAware ADS-B (KPVU)
07:41PM 40.3605 -111.9021 321° Northwest 297 342 10,900 -240 Descending FlightAware ADS-B (KBTF)
07:42PM 40.3839 -111.9225 335° Northwest 307 353 10,900 -180 Level FlightAware ADS-B (KBTF)
07:42PM 40.4113 -111.9311 355° North 309 356 10,800 -1,260 Descending FlightAware ADS-B (KBTF)
07:43PM 40.4719 -111.9384 355° North 309 356 9,600 -1,680 Descending FlightAware ADS-B (KPVU)
07:43PM 40.4966 -111.9411 355° North 296 341 9,100 -1,500 Descending FlightAware ADS-B (KPVU)
07:43PM 40.5254 -111.9444 355° North 283 326 8,600 -1,500 Descending FlightAware ADS-B (KPVU)
07:44PM 40.5467 -111.9468 355° North 272 313 8,200 -1,500 Descending FlightAware ADS-B (KBTF)
07:44PM 40.5661 -111.9491 355° North 261 300 7,800 -1,320 Descending FlightAware ADS-B (KPVU)
07:44PM 40.5894 -111.9517 355° North 251 289 7,400 -1,260 Descending FlightAware ADS-B (KPVU)
07:45PM 40.6130 -111.9544 355° North 247 284 7,000 -1,320 Descending FlightAware ADS-B (KPVU)
07:45PM 40.6331 -111.9568 355° North 243 280 6,600 -1,320 Descending FlightAware ADS-B (KBTF)
07:45PM 40.6491 -111.9586 355° North 231 266 6,300 -1,080 Descending FlightAware ADS-B (KBTF)
07:46PM 40.6742 -111.9615 355° North 194 223 5,900 -900 Descending FlightAware ADS-B (KBTF)
07:46PM 40.6923 -111.9637 355° North 178 205 5,600 -780 Descending FlightAware ADS-B (KBTF)
07:46PM 40.7073 -111.9650 357° North 160 184 5,400 -780 Descending FlightAware ADS-B (KBTF)
07:47PM 40.7229 -111.9670 353° North 146 168 5,100 -900 Descending FlightAware ADS-B (KBTF)
07:47PM 40.7368 -111.9688 355° North 151 174 4,800 -840 Descending FlightAware ADS-B (KBTF)
07:47PM 40.7491 -111.9702 355° North 150 173 4,600 -780 Descending FlightAware ADS-B (KBTF)
07:48PM 40.7641 -111.9719 355° North 146 168 4,300 -840 Descending FlightAware ADS-B (KBTF)